sensor_id;sensor_type;location;lat;lon;timestamp;pressure;altitude;pressure_sealevel;temperature;humidity
75759;BME280;64371;47.566;19.086;2023-05-28T00:03:18;100662.31;;;15.37;54.92
75759;BME280;64371;47.566;19.086;2023-05-28T00:06:23;100655.06;;;15.28;55.28
75759;BME280;64371;47.566;19.086;2023-05-28T00:09:26;100657.97;;;15.18;56.00
75759;BME280;64371;47.566;19.086;2023-05-28T00:12:28;100646.97;;;15.11;55.75
75759;BME280;64371;47.566;19.086;2023-05-28T00:15:30;100649.84;;;15.23;55.63
75759;BME280;64371;47.566;19.086;2023-05-28T00:18:33;100646.13;;;15.24;55.15
75759;BME280;64371;47.566;19.086;2023-05-28T00:21:35;100655.00;;;15.20;54.21
75759;BME280;64371;47.566;19.086;2023-05-28T00:24:38;100656.59;;;15.21;53.88
75759;BME280;64371;47.566;19.086;2023-05-28T00:27:41;100655.47;;;15.22;53.49
75759;BME280;64371;47.566;19.086;2023-05-28T00:30:43;100651.28;;;15.21;53.00
75759;BME280;64371;47.566;19.086;2023-05-28T00:33:46;100645.97;;;15.21;53.00
75759;BME280;64371;47.566;19.086;2023-05-28T00:36:48;100638.03;;;15.07;53.07
75759;BME280;64371;47.566;19.086;2023-05-28T00:39:50;100631.16;;;15.06;53.36
75759;BME280;64371;47.566;19.086;2023-05-28T00:42:53;100630.97;;;15.03;52.83
75759;BME280;64371;47.566;19.086;2023-05-28T00:46:00;100632.56;;;15.04;52.58
75759;BME280;64371;47.566;19.086;2023-05-28T00:49:03;100624.88;;;15.02;52.77
75759;BME280;64371;47.566;19.086;2023-05-28T00:52:07;100626.25;;;15.00;52.53
75759;BME280;64371;47.566;19.086;2023-05-28T00:55:14;100629.13;;;14.90;52.98
75759;BME280;64371;47.566;19.086;2023-05-28T00:58:17;100626.81;;;14.88;53.01
75759;BME280;64371;47.566;19.086;2023-05-28T01:01:24;100613.53;;;14.88;53.58
75759;BME280;64371;47.566;19.086;2023-05-28T01:04:28;100622.28;;;14.89;53.18
75759;BME280;64371;47.566;19.086;2023-05-28T01:07:33;100619.75;;;14.84;54.47
75759;BME280;64371;47.566;19.086;2023-05-28T01:10:36;100612.69;;;14.79;53.23
75759;BME280;64371;47.566;19.086;2023-05-28T01:13:40;100614.84;;;14.77;53.42
75759;BME280;64371;47.566;19.086;2023-05-28T01:16:44;100610.63;;;14.76;53.57
75759;BME280;64371;47.566;19.086;2023-05-28T01:19:50;100611.16;;;14.65;54.00
75759;BME280;64371;47.566;19.086;2023-05-28T01:22:55;100605.75;;;14.56;54.20
75759;BME280;64371;47.566;19.086;2023-05-28T01:26:00;100611.44;;;14.63;53.39
75759;BME280;64371;47.566;19.086;2023-05-28T01:29:14;100607.69;;;14.64;53.32
75759;BME280;64371;47.566;19.086;2023-05-28T01:32:18;100599.75;;;14.64;53.31
75759;BME280;64371;47.566;19.086;2023-05-28T01:35:20;100602.50;;;14.59;53.74
75759;BME280;64371;47.566;19.086;2023-05-28T01:38:23;100602.19;;;14.60;53.74
75759;BME280;64371;47.566;19.086;2023-05-28T01:41:26;100598.88;;;14.55;53.67
75759;BME280;64371;47.566;19.086;2023-05-28T01:44:30;100602.59;;;14.54;53.81
75759;BME280;64371;47.566;19.086;2023-05-28T01:47:33;100606.47;;;14.48;53.71
75759;BME280;64371;47.566;19.086;2023-05-28T01:50:36;100603.72;;;14.39;54.35
75759;BME280;64371;47.566;19.086;2023-05-28T01:53:40;100606.97;;;14.36;54.04
75759;BME280;64371;47.566;19.086;2023-05-28T01:56:42;100605.09;;;14.37;54.12
75759;BME280;64371;47.566;19.086;2023-05-28T01:59:45;100602.75;;;14.35;54.36
75759;BME280;64371;47.566;19.086;2023-05-28T02:02:48;100591.19;;;14.31;54.22
75759;BME280;64371;47.566;19.086;2023-05-28T02:05:53;100594.66;;;14.27;54.61
75759;BME280;64371;47.566;19.086;2023-05-28T02:08:55;100593.59;;;14.28;54.89
75759;BME280;64371;47.566;19.086;2023-05-28T02:11:58;100586.22;;;14.25;54.85
75759;BME280;64371;47.566;19.086;2023-05-28T02:15:05;100591.53;;;14.25;54.34
75759;BME280;64371;47.566;19.086;2023-05-28T02:18:08;100585.84;;;14.18;54.92
75759;BME280;64371;47.566;19.086;2023-05-28T02:21:12;100584.09;;;14.13;55.06
75759;BME280;64371;47.566;19.086;2023-05-28T02:24:16;100585.84;;;14.18;55.03
75759;BME280;64371;47.566;19.086;2023-05-28T02:27:19;100585.66;;;14.14;55.10
75759;BME280;64371;47.566;19.086;2023-05-28T02:30:22;100583.97;;;14.18;54.84
75759;BME280;64371;47.566;19.086;2023-05-28T02:33:24;100587.59;;;14.22;55.14
75759;BME280;64371;47.566;19.086;2023-05-28T02:36:27;100588.50;;;14.18;55.14
75759;BME280;64371;47.566;19.086;2023-05-28T02:39:32;100588.09;;;14.24;54.94
75759;BME280;64371;47.566;19.086;2023-05-28T02:42:34;100589.69;;;14.12;55.21
75759;BME280;64371;47.566;19.086;2023-05-28T02:45:37;100583.28;;;14.13;54.76
75759;BME280;64371;47.566;19.086;2023-05-28T02:48:39;100588.59;;;14.13;55.11
75759;BME280;64371;47.566;19.086;2023-05-28T02:51:43;100589.97;;;14.10;55.34
75759;BME280;64371;47.566;19.086;2023-05-28T02:54:56;100591.72;;;14.15;55.62
75759;BME280;64371;47.566;19.086;2023-05-28T02:58:00;100577.19;;;14.12;55.45
75759;BME280;64371;47.566;19.086;2023-05-28T03:01:03;100584.38;;;14.12;55.43
75759;BME280;64371;47.566;19.086;2023-05-28T03:04:06;100584.28;;;14.17;55.91
75759;BME280;64371;47.566;19.086;2023-05-28T03:07:08;100584.47;;;14.20;55.72
75759;BME280;64371;47.566;19.086;2023-05-28T03:10:11;100584.47;;;14.20;55.82
75759;BME280;64371;47.566;19.086;2023-05-28T03:13:13;100594.59;;;14.18;56.17
75759;BME280;64371;47.566;19.086;2023-05-28T03:16:16;100581.63;;;14.17;55.93
75759;BME280;64371;47.566;19.086;2023-05-28T03:19:19;100590.47;;;14.12;56.33
75759;BME280;64371;47.566;19.086;2023-05-28T03:22:23;100594.38;;;14.15;56.73
75759;BME280;64371;47.566;19.086;2023-05-28T03:25:26;100587.31;;;14.10;56.79
75759;BME280;64371;47.566;19.086;2023-05-28T03:28:31;100587.03;;;14.12;57.10
75759;BME280;64371;47.566;19.086;2023-05-28T03:32:02;100583.78;;;14.15;56.70
75759;BME280;64371;47.566;19.086;2023-05-28T03:35:06;100583.69;;;14.20;56.68
75759;BME280;64371;47.566;19.086;2023-05-28T03:38:09;100578.88;;;14.22;56.89
75759;BME280;64371;47.566;19.086;2023-05-28T03:41:11;100580.44;;;14.23;56.84
75759;BME280;64371;47.566;19.086;2023-05-28T03:44:14;100581.41;;;14.27;57.13
75759;BME280;64371;47.566;19.086;2023-05-28T03:47:18;100580.66;;;14.26;56.83
75759;BME280;64371;47.566;19.086;2023-05-28T03:50:21;100581.72;;;14.39;56.87
75759;BME280;64371;47.566;19.086;2023-05-28T03:53:24;100582.31;;;14.36;57.15
75759;BME280;64371;47.566;19.086;2023-05-28T03:56:26;100578.94;;;14.44;56.32
75759;BME280;64371;47.566;19.086;2023-05-28T03:59:29;100583.88;;;14.50;56.42
75759;BME280;64371;47.566;19.086;2023-05-28T04:02:31;100583.94;;;14.59;55.98
75759;BME280;64371;47.566;19.086;2023-05-28T04:05:33;100581.59;;;14.57;56.09
75759;BME280;64371;47.566;19.086;2023-05-28T04:08:36;100579.00;;;14.66;56.65
75759;BME280;64371;47.566;19.086;2023-05-28T04:11:38;100590.78;;;14.74;56.64
75759;BME280;64371;47.566;19.086;2023-05-28T04:14:46;100589.06;;;14.78;56.02
75759;BME280;64371;47.566;19.086;2023-05-28T04:17:49;100598.81;;;14.82;56.32
75759;BME280;64371;47.566;19.086;2023-05-28T04:20:51;100589.53;;;14.93;55.65
75759;BME280;64371;47.566;19.086;2023-05-28T04:23:54;100585.84;;;15.03;55.39
75759;BME280;64371;47.566;19.086;2023-05-28T04:26:56;100586.38;;;15.13;55.59
75759;BME280;64371;47.566;19.086;2023-05-28T04:29:59;100587.25;;;15.53;54.09
75759;BME280;64371;47.566;19.086;2023-05-28T04:33:01;100594.84;;;16.16;52.19
75759;BME280;64371;47.566;19.086;2023-05-28T04:36:04;100587.06;;;16.37;51.65
75759;BME280;64371;47.566;19.086;2023-05-28T04:39:06;100592.28;;;16.59;50.73
75759;BME280;64371;47.566;19.086;2023-05-28T04:42:09;100598.41;;;16.68;50.67
75759;BME280;64371;47.566;19.086;2023-05-28T04:45:15;100604.41;;;17.54;48.58
75759;BME280;64371;47.566;19.086;2023-05-28T04:48:20;100598.63;;;17.90;47.47
75759;BME280;64371;47.566;19.086;2023-05-28T04:51:24;100607.13;;;18.13;46.64
75759;BME280;64371;47.566;19.086;2023-05-28T04:54:27;100605.91;;;18.10;46.03
75759;BME280;64371;47.566;19.086;2023-05-28T04:57:29;100605.81;;;18.27;46.18
75759;BME280;64371;47.566;19.086;2023-05-28T05:00:32;100602.56;;;18.42;45.91
75759;BME280;64371;47.566;19.086;2023-05-28T05:03:37;100599.41;;;18.90;45.19
75759;BME280;64371;47.566;19.086;2023-05-28T05:06:40;100604.69;;;18.58;45.05
75759;BME280;64371;47.566;19.086;2023-05-28T05:09:43;100600.97;;;18.50;45.75
75759;BME280;64371;47.566;19.086;2023-05-28T05:12:46;100600.53;;;19.01;44.44
75759;BME280;64371;47.566;19.086;2023-05-28T05:15:48;100603.19;;;19.22;43.93
75759;BME280;64371;47.566;19.086;2023-05-28T05:18:51;100596.53;;;20.09;42.77
75759;BME280;64371;47.566;19.086;2023-05-28T05:21:53;100604.19;;;19.62;43.13
75759;BME280;64371;47.566;19.086;2023-05-28T05:24:56;100610.56;;;19.94;42.47
75759;BME280;64371;47.566;19.086;2023-05-28T05:27:58;100607.78;;;20.15;42.02
75759;BME280;64371;47.566;19.086;2023-05-28T05:31:03;100601.00;;;20.05;41.82
75759;BME280;64371;47.566;19.086;2023-05-28T05:34:06;100603.09;;;20.12;41.67
75759;BME280;64371;47.566;19.086;2023-05-28T05:37:25;100595.13;;;20.51;41.08
75759;BME280;64371;47.566;19.086;2023-05-28T05:40:46;100601.53;;;20.23;41.59
75759;BME280;64371;47.566;19.086;2023-05-28T05:44:07;100598.63;;;20.40;41.51
75759;BME280;64371;47.566;19.086;2023-05-28T05:47:10;100594.38;;;20.79;40.72
75759;BME280;64371;47.566;19.086;2023-05-28T05:50:13;100589.41;;;21.21;39.64
75759;BME280;64371;47.566;19.086;2023-05-28T05:53:19;100591.63;;;20.75;40.35
75759;BME280;64371;47.566;19.086;2023-05-28T05:56:22;100587.50;;;20.93;40.45
75759;BME280;64371;47.566;19.086;2023-05-28T05:59:25;100601.81;;;21.56;39.09
75759;BME280;64371;47.566;19.086;2023-05-28T06:02:29;100603.94;;;21.20;40.02
75759;BME280;64371;47.566;19.086;2023-05-28T06:05:35;100601.28;;;20.52;41.09
75759;BME280;64371;47.566;19.086;2023-05-28T06:08:49;100609.09;;;21.40;39.58
75759;BME280;64371;47.566;19.086;2023-05-28T06:12:07;100608.81;;;20.22;42.10
75759;BME280;64371;47.566;19.086;2023-05-28T06:15:10;100608.34;;;19.96;42.73
75759;BME280;64371;47.566;19.086;2023-05-28T06:18:13;100596.56;;;20.61;42.34
75759;BME280;64371;47.566;19.086;2023-05-28T06:21:16;100590.81;;;20.35;41.84
75759;BME280;64371;47.566;19.086;2023-05-28T06:24:18;100607.03;;;20.66;41.72
75759;BME280;64371;47.566;19.086;2023-05-28T06:27:20;100611.75;;;20.97;41.36
75759;BME280;64371;47.566;19.086;2023-05-28T06:30:23;100603.22;;;21.81;39.19
75759;BME280;64371;47.566;19.086;2023-05-28T06:33:25;100610.75;;;22.42;37.94
75759;BME280;64371;47.566;19.086;2023-05-28T06:36:28;100615.31;;;22.57;38.19
75759;BME280;64371;47.566;19.086;2023-05-28T06:39:31;100618.81;;;22.42;38.20
75759;BME280;64371;47.566;19.086;2023-05-28T06:42:34;100623.28;;;22.19;39.00
75759;BME280;64371;47.566;19.086;2023-05-28T06:45:59;100624.03;;;22.70;37.40
75759;BME280;64371;47.566;19.086;2023-05-28T06:49:03;100623.22;;;22.00;39.04
75759;BME280;64371;47.566;19.086;2023-05-28T06:52:05;100611.72;;;22.34;38.30
75759;BME280;64371;47.566;19.086;2023-05-28T06:55:08;100626.06;;;22.57;38.24
75759;BME280;64371;47.566;19.086;2023-05-28T06:58:15;100615.06;;;23.42;35.91
75759;BME280;64371;47.566;19.086;2023-05-28T07:01:37;100616.41;;;22.37;38.52
75759;BME280;64371;47.566;19.086;2023-05-28T07:04:58;100623.19;;;22.66;38.53
75759;BME280;64371;47.566;19.086;2023-05-28T07:08:05;100612.16;;;22.55;38.49
75759;BME280;64371;47.566;19.086;2023-05-28T07:11:08;100611.94;;;22.10;39.72
75759;BME280;64371;47.566;19.086;2023-05-28T07:14:10;100608.41;;;22.40;38.48
75759;BME280;64371;47.566;19.086;2023-05-28T07:17:13;100611.63;;;21.64;40.02
75759;BME280;64371;47.566;19.086;2023-05-28T07:20:17;100602.66;;;21.13;41.13
75759;BME280;64371;47.566;19.086;2023-05-28T07:23:29;100611.03;;;21.87;40.00
75759;BME280;64371;47.566;19.086;2023-05-28T07:26:32;100618.53;;;22.12;39.51
75759;BME280;64371;47.566;19.086;2023-05-28T07:29:35;100622.69;;;21.78;40.72
75759;BME280;64371;47.566;19.086;2023-05-28T07:32:38;100615.53;;;23.25;37.95
75759;BME280;64371;47.566;19.086;2023-05-28T07:35:41;100598.72;;;22.71;39.43
75759;BME280;64371;47.566;19.086;2023-05-28T07:38:44;100607.13;;;22.88;39.37
75759;BME280;64371;47.566;19.086;2023-05-28T07:41:47;100609.53;;;24.56;36.19
75759;BME280;64371;47.566;19.086;2023-05-28T07:44:57;100605.34;;;24.32;36.05
75759;BME280;64371;47.566;19.086;2023-05-28T07:48:00;100597.63;;;24.60;35.72
75759;BME280;64371;47.566;19.086;2023-05-28T07:51:14;100599.34;;;23.67;36.75
75759;BME280;64371;47.566;19.086;2023-05-28T07:54:19;100605.63;;;24.23;35.59
75759;BME280;64371;47.566;19.086;2023-05-28T07:57:22;100601.03;;;24.54;35.25
75759;BME280;64371;47.566;19.086;2023-05-28T08:00:25;100601.81;;;24.28;36.94
75759;BME280;64371;47.566;19.086;2023-05-28T08:03:28;100600.53;;;24.18;36.28
75759;BME280;64371;47.566;19.086;2023-05-28T08:06:34;100597.09;;;23.95;36.59
75759;BME280;64371;47.566;19.086;2023-05-28T08:09:39;100592.31;;;24.97;34.96
75759;BME280;64371;47.566;19.086;2023-05-28T08:12:45;100595.59;;;24.80;35.53
75759;BME280;64371;47.566;19.086;2023-05-28T08:15:48;100594.81;;;23.97;37.44
75759;BME280;64371;47.566;19.086;2023-05-28T08:18:53;100595.56;;;22.50;40.84
75759;BME280;64371;47.566;19.086;2023-05-28T08:21:56;100598.22;;;22.65;39.70
75759;BME280;64371;47.566;19.086;2023-05-28T08:24:59;100591.28;;;22.83;39.42
75759;BME280;64371;47.566;19.086;2023-05-28T08:28:02;100582.84;;;22.46;40.59
75759;BME280;64371;47.566;19.086;2023-05-28T08:31:07;100580.56;;;23.06;39.23
75759;BME280;64371;47.566;19.086;2023-05-28T08:34:28;100575.94;;;24.50;37.06
75759;BME280;64371;47.566;19.086;2023-05-28T08:37:31;100577.16;;;24.26;37.21
75759;BME280;64371;47.566;19.086;2023-05-28T08:40:55;100575.88;;;25.09;35.74
75759;BME280;64371;47.566;19.086;2023-05-28T08:43:58;100572.31;;;25.89;34.27
75759;BME280;64371;47.566;19.086;2023-05-28T08:47:01;100575.63;;;25.25;35.69
75759;BME280;64371;47.566;19.086;2023-05-28T08:50:23;100571.22;;;26.01;33.84
75759;BME280;64371;47.566;19.086;2023-05-28T08:53:46;100563.34;;;26.43;33.17
75759;BME280;64371;47.566;19.086;2023-05-28T08:56:55;100567.31;;;25.95;34.46
75759;BME280;64371;47.566;19.086;2023-05-28T09:00:00;100563.53;;;26.03;34.06
75759;BME280;64371;47.566;19.086;2023-05-28T09:03:29;100561.91;;;25.91;34.84
75759;BME280;64371;47.566;19.086;2023-05-28T09:06:39;100552.41;;;25.60;35.39
75759;BME280;64371;47.566;19.086;2023-05-28T09:09:48;100549.53;;;25.87;33.25
75759;BME280;64371;47.566;19.086;2023-05-28T09:12:58;100551.19;;;26.05;34.43
75759;BME280;64371;47.566;19.086;2023-05-28T09:16:02;100543.47;;;26.07;34.37
75759;BME280;64371;47.566;19.086;2023-05-28T09:19:04;100545.56;;;26.39;33.82
75759;BME280;64371;47.566;19.086;2023-05-28T09:22:12;100542.66;;;26.75;33.64
75759;BME280;64371;47.566;19.086;2023-05-28T09:25:23;100542.50;;;25.31;35.52
75759;BME280;64371;47.566;19.086;2023-05-28T09:28:31;100534.25;;;25.54;34.43
75759;BME280;64371;47.566;19.086;2023-05-28T09:31:34;100532.72;;;25.56;33.97
75759;BME280;64371;47.566;19.086;2023-05-28T09:34:41;100535.25;;;25.90;33.29
75759;BME280;64371;47.566;19.086;2023-05-28T09:37:45;100533.13;;;26.13;32.57
75759;BME280;64371;47.566;19.086;2023-05-28T09:40:48;100530.03;;;26.11;32.15
75759;BME280;64371;47.566;19.086;2023-05-28T09:43:59;100527.84;;;25.76;31.84
75759;BME280;64371;47.566;19.086;2023-05-28T09:47:14;100533.81;;;26.06;32.14
75759;BME280;64371;47.566;19.086;2023-05-28T09:50:19;100526.22;;;26.26;31.58
75759;BME280;64371;47.566;19.086;2023-05-28T09:53:23;100529.75;;;26.41;32.37
75759;BME280;64371;47.566;19.086;2023-05-28T09:56:27;100525.66;;;26.89;31.05
75759;BME280;64371;47.566;19.086;2023-05-28T09:59:40;100522.22;;;27.10;31.39
75759;BME280;64371;47.566;19.086;2023-05-28T10:02:48;100526.34;;;26.54;31.46
75759;BME280;64371;47.566;19.086;2023-05-28T10:05:56;100520.94;;;26.54;32.22
75759;BME280;64371;47.566;19.086;2023-05-28T10:09:02;100523.75;;;26.86;32.27
75759;BME280;64371;47.566;19.086;2023-05-28T10:12:12;100518.69;;;26.91;32.08
75759;BME280;64371;47.566;19.086;2023-05-28T10:15:17;100509.38;;;25.85;33.89
75759;BME280;64371;47.566;19.086;2023-05-28T10:18:19;100508.47;;;26.25;33.10
75759;BME280;64371;47.566;19.086;2023-05-28T10:21:23;100509.03;;;25.39;33.39
75759;BME280;64371;47.566;19.086;2023-05-28T10:24:26;100503.16;;;26.67;31.89
75759;BME280;64371;47.566;19.086;2023-05-28T10:27:29;100495.09;;;26.81;31.49
75759;BME280;64371;47.566;19.086;2023-05-28T10:30:36;100490.28;;;26.22;32.33
75759;BME280;64371;47.566;19.086;2023-05-28T10:33:40;100489.38;;;24.91;33.31
75759;BME280;64371;47.566;19.086;2023-05-28T10:36:50;100489.47;;;25.02;33.25
75759;BME280;64371;47.566;19.086;2023-05-28T10:40:08;100487.63;;;25.13;34.27
75759;BME280;64371;47.566;19.086;2023-05-28T10:46:39;100485.06;;;24.50;34.88
75759;BME280;64371;47.566;19.086;2023-05-28T10:49:58;100489.38;;;24.91;33.27
75759;BME280;64371;47.566;19.086;2023-05-28T10:53:17;100477.38;;;24.49;33.24
75759;BME280;64371;47.566;19.086;2023-05-28T10:56:25;100477.00;;;24.17;34.49
75759;BME280;64371;47.566;19.086;2023-05-28T10:59:39;100485.34;;;24.08;33.74
75759;BME280;64371;47.566;19.086;2023-05-28T11:02:45;100475.66;;;23.77;34.26
75759;BME280;64371;47.566;19.086;2023-05-28T11:05:50;100470.66;;;24.35;34.94
75759;BME280;64371;47.566;19.086;2023-05-28T11:08:53;100467.84;;;24.58;35.83
75759;BME280;64371;47.566;19.086;2023-05-28T11:11:59;100464.50;;;24.72;34.87
75759;BME280;64371;47.566;19.086;2023-05-28T11:15:04;100462.28;;;24.81;35.11
75759;BME280;64371;47.566;19.086;2023-05-28T11:18:07;100451.41;;;24.70;33.36
75759;BME280;64371;47.566;19.086;2023-05-28T11:21:10;100445.75;;;24.82;32.46
75759;BME280;64371;47.566;19.086;2023-05-28T11:24:13;100454.41;;;25.02;32.66
75759;BME280;64371;47.566;19.086;2023-05-28T11:27:16;100443.81;;;24.83;33.34
75759;BME280;64371;47.566;19.086;2023-05-28T11:30:19;100443.31;;;24.74;34.12
75759;BME280;64371;47.566;19.086;2023-05-28T11:33:28;100438.28;;;24.69;33.97
75759;BME280;64371;47.566;19.086;2023-05-28T11:36:37;100435.63;;;24.76;34.65
75759;BME280;64371;47.566;19.086;2023-05-28T11:39:49;100436.34;;;24.66;34.83
75759;BME280;64371;47.566;19.086;2023-05-28T11:42:57;100429.97;;;24.48;35.10
75759;BME280;64371;47.566;19.086;2023-05-28T11:46:01;100429.59;;;24.86;34.85
75759;BME280;64371;47.566;19.086;2023-05-28T11:49:04;100419.59;;;24.46;35.61
75759;BME280;64371;47.566;19.086;2023-05-28T11:52:13;100419.59;;;24.86;35.19
75759;BME280;64371;47.566;19.086;2023-05-28T11:55:15;100416.63;;;24.62;35.64
75759;BME280;64371;47.566;19.086;2023-05-28T11:58:28;100411.44;;;24.42;36.01
75759;BME280;64371;47.566;19.086;2023-05-28T12:01:38;100419.59;;;24.46;36.15
75759;BME280;64371;47.566;19.086;2023-05-28T12:07:57;100411.69;;;24.71;35.76
75759;BME280;64371;47.566;19.086;2023-05-28T12:11:01;100413.44;;;24.49;36.48
75759;BME280;64371;47.566;19.086;2023-05-28T12:14:11;100412.44;;;24.64;36.10
75759;BME280;64371;47.566;19.086;2023-05-28T12:17:15;100405.91;;;24.65;36.12
75759;BME280;64371;47.566;19.086;2023-05-28T12:23:21;100403.72;;;24.78;34.92
75759;BME280;64371;47.566;19.086;2023-05-28T12:26:24;100410.81;;;25.00;35.02
75759;BME280;64371;47.566;19.086;2023-05-28T12:29:27;100410.16;;;25.14;34.23
75759;BME280;64371;47.566;19.086;2023-05-28T12:32:33;100408.25;;;25.14;33.69
75759;BME280;64371;47.566;19.086;2023-05-28T12:35:36;100400.97;;;24.74;33.75
75759;BME280;64371;47.566;19.086;2023-05-28T12:38:39;100407.50;;;24.73;34.20
75759;BME280;64371;47.566;19.086;2023-05-28T12:41:41;100403.50;;;24.97;34.63
75759;BME280;64371;47.566;19.086;2023-05-28T12:44:44;100399.19;;;24.89;34.29
75759;BME280;64371;47.566;19.086;2023-05-28T12:47:47;100398.78;;;24.87;33.37
75759;BME280;64371;47.566;19.086;2023-05-28T12:50:49;100396.97;;;25.01;33.40
75759;BME280;64371;47.566;19.086;2023-05-28T12:53:51;100381.72;;;25.23;32.03
75759;BME280;64371;47.566;19.086;2023-05-28T12:56:54;100378.75;;;24.88;31.59
75759;BME280;64371;47.566;19.086;2023-05-28T12:59:56;100388.22;;;24.71;31.59
75759;BME280;64371;47.566;19.086;2023-05-28T13:02:59;100389.97;;;24.90;28.77
75759;BME280;64371;47.566;19.086;2023-05-28T13:06:05;100382.19;;;24.81;29.06
75759;BME280;64371;47.566;19.086;2023-05-28T13:09:07;100381.41;;;24.81;31.33
75759;BME280;64371;47.566;19.086;2023-05-28T13:12:11;100382.72;;;25.04;31.02
75759;BME280;64371;47.566;19.086;2023-05-28T13:15:13;100372.22;;;24.89;31.51
75759;BME280;64371;47.566;19.086;2023-05-28T13:18:16;100375.72;;;24.93;30.28
75759;BME280;64371;47.566;19.086;2023-05-28T13:21:18;100380.09;;;25.12;30.28
75759;BME280;64371;47.566;19.086;2023-05-28T13:24:21;100375.97;;;25.28;29.59
75759;BME280;64371;47.566;19.086;2023-05-28T13:27:27;100364.69;;;25.16;29.21
75759;BME280;64371;47.566;19.086;2023-05-28T13:30:30;100362.78;;;25.20;29.42
75759;BME280;64371;47.566;19.086;2023-05-28T13:33:32;100366.09;;;24.95;29.79
75759;BME280;64371;47.566;19.086;2023-05-28T13:36:34;100365.91;;;24.74;31.11
75759;BME280;64371;47.566;19.086;2023-05-28T13:39:38;100359.09;;;24.84;30.78
75759;BME280;64371;47.566;19.086;2023-05-28T13:42:40;100355.91;;;24.75;30.70
75759;BME280;64371;47.566;19.086;2023-05-28T13:45:43;100354.13;;;24.93;29.53
75759;BME280;64371;47.566;19.086;2023-05-28T13:48:45;100350.66;;;24.92;31.32
75759;BME280;64371;47.566;19.086;2023-05-28T13:51:48;100358.00;;;24.95;30.45
75759;BME280;64371;47.566;19.086;2023-05-28T13:54:50;100354.47;;;24.88;30.18
75759;BME280;64371;47.566;19.086;2023-05-28T13:57:52;100349.88;;;24.88;29.07
75759;BME280;64371;47.566;19.086;2023-05-28T14:00:55;100343.34;;;24.89;28.52
75759;BME280;64371;47.566;19.086;2023-05-28T14:03:58;100332.19;;;24.94;28.76
75759;BME280;64371;47.566;19.086;2023-05-28T14:07:00;100335.31;;;25.00;29.23
75759;BME280;64371;47.566;19.086;2023-05-28T14:10:03;100337.28;;;25.07;27.95
75759;BME280;64371;47.566;19.086;2023-05-28T14:13:06;100323.09;;;25.17;28.31
75759;BME280;64371;47.566;19.086;2023-05-28T14:16:09;100333.84;;;25.13;29.35
75759;BME280;64371;47.566;19.086;2023-05-28T14:19:11;100326.84;;;25.01;29.47
75759;BME280;64371;47.566;19.086;2023-05-28T14:22:14;100328.78;;;25.04;29.62
75759;BME280;64371;47.566;19.086;2023-05-28T14:25:16;100327.09;;;24.82;29.44
75759;BME280;64371;47.566;19.086;2023-05-28T14:28:19;100312.09;;;24.88;29.51
75759;BME280;64371;47.566;19.086;2023-05-28T14:31:22;100317.59;;;25.02;28.43
75759;BME280;64371;47.566;19.086;2023-05-28T14:34:24;100314.06;;;24.91;28.59
75759;BME280;64371;47.566;19.086;2023-05-28T14:37:27;100321.47;;;25.05;28.64
75759;BME280;64371;47.566;19.086;2023-05-28T14:40:29;100317.22;;;25.04;28.23
75759;BME280;64371;47.566;19.086;2023-05-28T14:43:32;100312.63;;;24.57;27.89
75759;BME280;64371;47.566;19.086;2023-05-28T14:46:34;100316.38;;;24.89;27.74
75759;BME280;64371;47.566;19.086;2023-05-28T14:49:37;100302.75;;;24.75;26.73
75759;BME280;64371;47.566;19.086;2023-05-28T14:52:39;100305.03;;;24.73;26.86
75759;BME280;64371;47.566;19.086;2023-05-28T14:55:43;100301.72;;;24.90;27.33
75759;BME280;64371;47.566;19.086;2023-05-28T14:58:45;100298.97;;;24.83;27.55
75759;BME280;64371;47.566;19.086;2023-05-28T15:01:48;100292.22;;;24.60;28.10
75759;BME280;64371;47.566;19.086;2023-05-28T15:04:50;100292.88;;;24.90;28.64
75759;BME280;64371;47.566;19.086;2023-05-28T15:07:52;100295.19;;;24.91;26.92
75759;BME280;64371;47.566;19.086;2023-05-28T15:10:56;100307.16;;;24.94;26.83
75759;BME280;64371;47.566;19.086;2023-05-28T15:13:59;100300.53;;;24.88;26.53
75759;BME280;64371;47.566;19.086;2023-05-28T15:17:02;100299.19;;;24.61;26.77
75759;BME280;64371;47.566;19.086;2023-05-28T15:20:05;100294.25;;;24.70;27.89
75759;BME280;64371;47.566;19.086;2023-05-28T15:23:08;100291.88;;;24.65;28.32
75759;BME280;64371;47.566;19.086;2023-05-28T15:26:11;100288.41;;;24.64;28.25
75759;BME280;64371;47.566;19.086;2023-05-28T15:29:14;100289.19;;;24.68;28.23
75759;BME280;64371;47.566;19.086;2023-05-28T15:32:17;100290.38;;;24.71;27.18
75759;BME280;64371;47.566;19.086;2023-05-28T15:35:20;100291.06;;;24.54;27.64
75759;BME280;64371;47.566;19.086;2023-05-28T15:38:23;100282.97;;;24.54;27.72
75759;BME280;64371;47.566;19.086;2023-05-28T15:41:26;100285.66;;;24.54;27.60
75759;BME280;64371;47.566;19.086;2023-05-28T15:44:28;100275.22;;;24.49;27.51
75759;BME280;64371;47.566;19.086;2023-05-28T15:47:32;100274.88;;;24.54;27.20
75759;BME280;64371;47.566;19.086;2023-05-28T15:50:35;100277.88;;;24.45;27.09
75759;BME280;64371;47.566;19.086;2023-05-28T15:53:38;100263.91;;;24.29;27.25
75759;BME280;64371;47.566;19.086;2023-05-28T15:56:41;100277.38;;;24.32;27.49
75759;BME280;64371;47.566;19.086;2023-05-28T15:59:44;100278.09;;;24.26;27.85
75759;BME280;64371;47.566;19.086;2023-05-28T16:02:46;100281.53;;;24.19;27.67
75759;BME280;64371;47.566;19.086;2023-05-28T16:05:49;100276.31;;;24.04;28.28